sensor_id;sensor_type;location;lat;lon;timestamp;P1;durP1;ratioP1;P2;durP2;ratioP2
3443;SDS011;1736;52.068;6.968;2024-03-07T00:00:41;56.40;;;34.17;;
3443;SDS011;1736;52.068;6.968;2024-03-07T00:03:07;61.70;;;36.08;;
3443;SDS011;1736;52.068;6.968;2024-03-07T00:05:35;58.97;;;35.67;;
3443;SDS011;1736;52.068;6.968;2024-03-07T00:08:01;56.35;;;34.03;;
3443;SDS011;1736;52.068;6.968;2024-03-07T00:10:28;59.97;;;34.42;;
3443;SDS011;1736;52.068;6.968;2024-03-07T00:12:54;64.93;;;35.80;;
3443;SDS011;1736;52.068;6.968;2024-03-07T00:15:21;56.92;;;33.70;;
3443;SDS011;1736;52.068;6.968;2024-03-07T00:17:48;56.67;;;34.33;;
3443;SDS011;1736;52.068;6.968;2024-03-07T00:20:14;59.08;;;33.22;;
3443;SDS011;1736;52.068;6.968;2024-03-07T00:22:45;58.88;;;33.90;;
3443;SDS011;1736;52.068;6.968;2024-03-07T00:25:12;59.30;;;35.40;;
3443;SDS011;1736;52.068;6.968;2024-03-07T00:27:39;61.17;;;35.90;;
3443;SDS011;1736;52.068;6.968;2024-03-07T00:30:06;63.78;;;37.10;;
3443;SDS011;1736;52.068;6.968;2024-03-07T00:32:34;58.20;;;35.45;;
3443;SDS011;1736;52.068;6.968;2024-03-07T00:35:04;59.28;;;36.03;;
3443;SDS011;1736;52.068;6.968;2024-03-07T00:37:31;58.72;;;36.30;;
3443;SDS011;1736;52.068;6.968;2024-03-07T00:39:59;61.90;;;36.50;;
3443;SDS011;1736;52.068;6.968;2024-03-07T00:42:26;56.80;;;33.85;;
3443;SDS011;1736;52.068;6.968;2024-03-07T00:44:54;60.45;;;35.00;;
3443;SDS011;1736;52.068;6.968;2024-03-07T00:47:20;64.25;;;38.15;;
3443;SDS011;1736;52.068;6.968;2024-03-07T00:49:47;62.17;;;37.15;;
3443;SDS011;1736;52.068;6.968;2024-03-07T00:52:13;60.30;;;36.08;;
3443;SDS011;1736;52.068;6.968;2024-03-07T00:54:40;56.70;;;34.88;;
3443;SDS011;1736;52.068;6.968;2024-03-07T00:57:08;62.67;;;37.17;;
3443;SDS011;1736;52.068;6.968;2024-03-07T00:59:35;66.57;;;37.40;;
3443;SDS011;1736;52.068;6.968;2024-03-07T01:02:02;62.67;;;37.55;;
3443;SDS011;1736;52.068;6.968;2024-03-07T01:04:29;60.90;;;36.10;;
3443;SDS011;1736;52.068;6.968;2024-03-07T01:06:58;60.73;;;36.03;;
3443;SDS011;1736;52.068;6.968;2024-03-07T01:09:25;63.80;;;36.73;;
3443;SDS011;1736;52.068;6.968;2024-03-07T01:11:53;60.28;;;35.67;;
3443;SDS011;1736;52.068;6.968;2024-03-07T01:14:22;63.20;;;36.42;;
3443;SDS011;1736;52.068;6.968;2024-03-07T01:16:48;62.65;;;35.78;;
3443;SDS011;1736;52.068;6.968;2024-03-07T01:19:15;63.63;;;37.30;;
3443;SDS011;1736;52.068;6.968;2024-03-07T01:21:42;58.08;;;36.15;;
3443;SDS011;1736;52.068;6.968;2024-03-07T01:24:08;68.93;;;37.88;;
3443;SDS011;1736;52.068;6.968;2024-03-07T01:26:35;62.25;;;37.97;;
3443;SDS011;1736;52.068;6.968;2024-03-07T01:29:02;66.30;;;38.28;;
3443;SDS011;1736;52.068;6.968;2024-03-07T01:31:40;65.82;;;36.63;;
3443;SDS011;1736;52.068;6.968;2024-03-07T01:34:06;66.22;;;38.47;;
3443;SDS011;1736;52.068;6.968;2024-03-07T01:36:33;64.33;;;37.77;;
3443;SDS011;1736;52.068;6.968;2024-03-07T01:38:59;60.97;;;35.75;;
3443;SDS011;1736;52.068;6.968;2024-03-07T01:41:26;58.15;;;35.72;;
3443;SDS011;1736;52.068;6.968;2024-03-07T01:43:53;55.53;;;34.35;;
3443;SDS011;1736;52.068;6.968;2024-03-07T01:46:19;60.65;;;35.85;;
3443;SDS011;1736;52.068;6.968;2024-03-07T01:48:47;62.15;;;37.15;;
3443;SDS011;1736;52.068;6.968;2024-03-07T01:51:14;60.17;;;35.53;;
3443;SDS011;1736;52.068;6.968;2024-03-07T01:53:41;56.35;;;34.83;;
3443;SDS011;1736;52.068;6.968;2024-03-07T01:56:08;63.75;;;37.85;;
3443;SDS011;1736;52.068;6.968;2024-03-07T01:58:35;63.10;;;36.63;;
3443;SDS011;1736;52.068;6.968;2024-03-07T02:01:02;60.42;;;36.40;;
3443;SDS011;1736;52.068;6.968;2024-03-07T02:03:29;61.25;;;35.75;;
3443;SDS011;1736;52.068;6.968;2024-03-07T02:05:57;64.85;;;36.88;;
3443;SDS011;1736;52.068;6.968;2024-03-07T02:08:24;58.95;;;35.42;;
3443;SDS011;1736;52.068;6.968;2024-03-07T02:10:51;61.65;;;36.40;;
3443;SDS011;1736;52.068;6.968;2024-03-07T02:13:18;57.65;;;36.15;;
3443;SDS011;1736;52.068;6.968;2024-03-07T02:15:44;62.67;;;36.90;;
3443;SDS011;1736;52.068;6.968;2024-03-07T02:18:11;65.38;;;37.33;;
3443;SDS011;1736;52.068;6.968;2024-03-07T02:20:43;58.93;;;36.20;;
3443;SDS011;1736;52.068;6.968;2024-03-07T02:23:09;60.00;;;36.50;;
3443;SDS011;1736;52.068;6.968;2024-03-07T02:25:36;59.10;;;36.03;;
3443;SDS011;1736;52.068;6.968;2024-03-07T02:28:03;65.40;;;37.88;;
3443;SDS011;1736;52.068;6.968;2024-03-07T02:30:30;60.70;;;38.10;;
3443;SDS011;1736;52.068;6.968;2024-03-07T02:32:57;61.85;;;36.63;;
3443;SDS011;1736;52.068;6.968;2024-03-07T02:35:31;62.58;;;36.65;;
3443;SDS011;1736;52.068;6.968;2024-03-07T02:37:59;57.63;;;34.05;;
3443;SDS011;1736;52.068;6.968;2024-03-07T02:40:27;62.92;;;35.58;;
3443;SDS011;1736;52.068;6.968;2024-03-07T02:42:53;60.93;;;34.83;;
3443;SDS011;1736;52.068;6.968;2024-03-07T02:45:20;59.92;;;36.22;;
3443;SDS011;1736;52.068;6.968;2024-03-07T02:47:46;59.35;;;35.80;;
3443;SDS011;1736;52.068;6.968;2024-03-07T02:50:13;56.05;;;35.20;;
3443;SDS011;1736;52.068;6.968;2024-03-07T02:52:39;53.67;;;31.73;;
3443;SDS011;1736;52.068;6.968;2024-03-07T02:55:08;60.55;;;37.22;;
3443;SDS011;1736;52.068;6.968;2024-03-07T02:57:36;58.20;;;35.25;;
3443;SDS011;1736;52.068;6.968;2024-03-07T03:00:02;57.03;;;34.38;;
3443;SDS011;1736;52.068;6.968;2024-03-07T03:02:38;58.17;;;34.47;;
3443;SDS011;1736;52.068;6.968;2024-03-07T03:05:05;57.28;;;34.83;;
3443;SDS011;1736;52.068;6.968;2024-03-07T03:07:34;58.83;;;35.27;;
3443;SDS011;1736;52.068;6.968;2024-03-07T03:10:02;56.60;;;34.65;;
3443;SDS011;1736;52.068;6.968;2024-03-07T03:12:36;55.70;;;34.75;;
3443;SDS011;1736;52.068;6.968;2024-03-07T03:15:03;50.90;;;31.15;;
3443;SDS011;1736;52.068;6.968;2024-03-07T03:17:30;54.22;;;34.38;;
3443;SDS011;1736;52.068;6.968;2024-03-07T03:19:57;55.85;;;34.22;;
3443;SDS011;1736;52.068;6.968;2024-03-07T03:22:24;56.28;;;34.33;;
3443;SDS011;1736;52.068;6.968;2024-03-07T03:24:52;57.87;;;33.73;;
3443;SDS011;1736;52.068;6.968;2024-03-07T03:27:20;54.83;;;33.20;;
3443;SDS011;1736;52.068;6.968;2024-03-07T03:29:48;60.90;;;36.58;;
3443;SDS011;1736;52.068;6.968;2024-03-07T03:32:16;57.90;;;34.30;;
3443;SDS011;1736;52.068;6.968;2024-03-07T03:34:43;55.35;;;33.20;;
3443;SDS011;1736;52.068;6.968;2024-03-07T03:37:09;54.50;;;34.33;;
3443;SDS011;1736;52.068;6.968;2024-03-07T03:39:36;50.90;;;32.15;;
3443;SDS011;1736;52.068;6.968;2024-03-07T03:42:03;58.80;;;35.20;;
3443;SDS011;1736;52.068;6.968;2024-03-07T03:44:31;53.20;;;32.88;;
3443;SDS011;1736;52.068;6.968;2024-03-07T03:47:00;50.78;;;32.90;;
3443;SDS011;1736;52.068;6.968;2024-03-07T03:49:29;54.28;;;32.13;;
3443;SDS011;1736;52.068;6.968;2024-03-07T03:51:55;50.28;;;32.03;;
3443;SDS011;1736;52.068;6.968;2024-03-07T03:54:22;56.78;;;34.75;;
3443;SDS011;1736;52.068;6.968;2024-03-07T03:56:49;55.15;;;33.92;;
3443;SDS011;1736;52.068;6.968;2024-03-07T03:59:15;52.30;;;32.65;;
3443;SDS011;1736;52.068;6.968;2024-03-07T04:01:42;54.92;;;33.80;;
3443;SDS011;1736;52.068;6.968;2024-03-07T04:04:11;56.33;;;35.55;;
3443;SDS011;1736;52.068;6.968;2024-03-07T04:06:38;49.28;;;31.13;;
3443;SDS011;1736;52.068;6.968;2024-03-07T04:09:05;55.95;;;34.42;;
3443;SDS011;1736;52.068;6.968;2024-03-07T04:11:32;56.55;;;34.92;;
3443;SDS011;1736;52.068;6.968;2024-03-07T04:13:58;58.08;;;35.10;;
3443;SDS011;1736;52.068;6.968;2024-03-07T04:16:26;51.00;;;32.70;;
3443;SDS011;1736;52.068;6.968;2024-03-07T04:18:53;62.70;;;34.40;;
3443;SDS011;1736;52.068;6.968;2024-03-07T04:21:20;52.20;;;32.53;;
3443;SDS011;1736;52.068;6.968;2024-03-07T04:23:47;51.65;;;31.05;;
3443;SDS011;1736;52.068;6.968;2024-03-07T04:26:14;58.17;;;34.50;;
3443;SDS011;1736;52.068;6.968;2024-03-07T04:28:40;49.92;;;30.23;;
3443;SDS011;1736;52.068;6.968;2024-03-07T04:31:07;54.97;;;33.35;;
3443;SDS011;1736;52.068;6.968;2024-03-07T04:33:34;48.95;;;31.23;;
3443;SDS011;1736;52.068;6.968;2024-03-07T04:36:00;49.67;;;31.95;;
3443;SDS011;1736;52.068;6.968;2024-03-07T04:38:29;50.65;;;30.95;;
3443;SDS011;1736;52.068;6.968;2024-03-07T04:40:55;56.70;;;32.97;;
3443;SDS011;1736;52.068;6.968;2024-03-07T04:43:22;53.25;;;32.08;;
3443;SDS011;1736;52.068;6.968;2024-03-07T04:45:48;58.60;;;32.83;;
3443;SDS011;1736;52.068;6.968;2024-03-07T04:48:15;50.63;;;32.30;;
3443;SDS011;1736;52.068;6.968;2024-03-07T04:50:42;52.47;;;31.58;;
3443;SDS011;1736;52.068;6.968;2024-03-07T04:53:08;52.78;;;32.67;;
3443;SDS011;1736;52.068;6.968;2024-03-07T04:55:36;54.63;;;33.40;;
3443;SDS011;1736;52.068;6.968;2024-03-07T04:58:03;52.67;;;32.65;;
3443;SDS011;1736;52.068;6.968;2024-03-07T05:00:30;49.15;;;30.02;;
3443;SDS011;1736;52.068;6.968;2024-03-07T05:02:56;51.13;;;31.15;;
3443;SDS011;1736;52.068;6.968;2024-03-07T05:05:23;53.58;;;31.77;;
3443;SDS011;1736;52.068;6.968;2024-03-07T05:07:51;51.80;;;31.25;;
3443;SDS011;1736;52.068;6.968;2024-03-07T05:10:18;54.70;;;32.67;;
3443;SDS011;1736;52.068;6.968;2024-03-07T05:12:46;51.38;;;32.53;;
3443;SDS011;1736;52.068;6.968;2024-03-07T05:15:13;50.60;;;31.42;;
3443;SDS011;1736;52.068;6.968;2024-03-07T05:17:40;50.03;;;29.90;;
3443;SDS011;1736;52.068;6.968;2024-03-07T05:20:08;48.17;;;29.95;;
3443;SDS011;1736;52.068;6.968;2024-03-07T05:22:35;56.93;;;33.13;;
3443;SDS011;1736;52.068;6.968;2024-03-07T05:25:04;49.70;;;30.83;;
3443;SDS011;1736;52.068;6.968;2024-03-07T05:27:31;47.90;;;30.33;;
3443;SDS011;1736;52.068;6.968;2024-03-07T05:30:00;50.10;;;30.13;;
3443;SDS011;1736;52.068;6.968;2024-03-07T05:32:26;48.15;;;29.17;;
3443;SDS011;1736;52.068;6.968;2024-03-07T05:34:53;47.15;;;29.13;;
3443;SDS011;1736;52.068;6.968;2024-03-07T05:37:20;47.03;;;28.60;;
3443;SDS011;1736;52.068;6.968;2024-03-07T05:39:48;50.00;;;29.63;;
3443;SDS011;1736;52.068;6.968;2024-03-07T05:42:15;53.15;;;32.40;;
3443;SDS011;1736;52.068;6.968;2024-03-07T05:44:41;46.83;;;29.88;;
3443;SDS011;1736;52.068;6.968;2024-03-07T05:47:10;46.83;;;30.20;;
3443;SDS011;1736;52.068;6.968;2024-03-07T05:49:38;45.13;;;28.33;;
3443;SDS011;1736;52.068;6.968;2024-03-07T05:52:06;44.85;;;29.33;;
3443;SDS011;1736;52.068;6.968;2024-03-07T05:54:32;48.47;;;29.88;;
3443;SDS011;1736;52.068;6.968;2024-03-07T05:56:59;46.90;;;30.10;;
3443;SDS011;1736;52.068;6.968;2024-03-07T05:59:26;44.00;;;28.30;;
3443;SDS011;1736;52.068;6.968;2024-03-07T06:01:56;44.97;;;28.60;;
3443;SDS011;1736;52.068;6.968;2024-03-07T06:04:24;46.72;;;29.15;;
3443;SDS011;1736;52.068;6.968;2024-03-07T06:06:50;44.88;;;28.50;;
3443;SDS011;1736;52.068;6.968;2024-03-07T06:09:17;45.55;;;28.63;;
3443;SDS011;1736;52.068;6.968;2024-03-07T06:11:46;45.13;;;30.73;;
3443;SDS011;1736;52.068;6.968;2024-03-07T06:14:13;43.47;;;28.40;;
3443;SDS011;1736;52.068;6.968;2024-03-07T06:16:41;43.08;;;28.48;;
3443;SDS011;1736;52.068;6.968;2024-03-07T06:19:08;43.92;;;27.48;;
3443;SDS011;1736;52.068;6.968;2024-03-07T06:21:36;48.30;;;29.60;;
3443;SDS011;1736;52.068;6.968;2024-03-07T06:24:04;43.95;;;29.25;;
3443;SDS011;1736;52.068;6.968;2024-03-07T06:26:33;45.97;;;29.25;;
3443;SDS011;1736;52.068;6.968;2024-03-07T06:29:11;43.17;;;28.38;;
3443;SDS011;1736;52.068;6.968;2024-03-07T06:31:38;42.22;;;27.27;;
3443;SDS011;1736;52.068;6.968;2024-03-07T06:34:05;42.50;;;28.15;;
3443;SDS011;1736;52.068;6.968;2024-03-07T06:36:31;42.90;;;28.95;;
3443;SDS011;1736;52.068;6.968;2024-03-07T06:38:59;44.57;;;28.20;;
3443;SDS011;1736;52.068;6.968;2024-03-07T06:41:26;43.58;;;27.92;;
3443;SDS011;1736;52.068;6.968;2024-03-07T06:43:54;43.90;;;29.08;;
3443;SDS011;1736;52.068;6.968;2024-03-07T06:46:21;40.08;;;26.70;;
3443;SDS011;1736;52.068;6.968;2024-03-07T06:48:49;40.28;;;27.60;;
3443;SDS011;1736;52.068;6.968;2024-03-07T06:51:16;40.70;;;26.30;;
3443;SDS011;1736;52.068;6.968;2024-03-07T06:53:43;40.90;;;26.47;;
3443;SDS011;1736;52.068;6.968;2024-03-07T06:56:12;44.65;;;28.60;;
3443;SDS011;1736;52.068;6.968;2024-03-07T06:58:38;39.90;;;25.98;;
3443;SDS011;1736;52.068;6.968;2024-03-07T07:01:05;41.30;;;27.25;;
3443;SDS011;1736;52.068;6.968;2024-03-07T07:03:34;37.10;;;24.87;;
3443;SDS011;1736;52.068;6.968;2024-03-07T07:06:01;39.35;;;25.27;;
3443;SDS011;1736;52.068;6.968;2024-03-07T07:08:29;37.08;;;24.70;;
3443;SDS011;1736;52.068;6.968;2024-03-07T07:10:56;39.45;;;25.63;;
3443;SDS011;1736;52.068;6.968;2024-03-07T07:13:24;36.72;;;24.60;;
3443;SDS011;1736;52.068;6.968;2024-03-07T07:15:50;35.78;;;24.00;;
3443;SDS011;1736;52.068;6.968;2024-03-07T07:18:18;34.97;;;23.30;;
3443;SDS011;1736;52.068;6.968;2024-03-07T07:20:45;35.40;;;24.05;;
3443;SDS011;1736;52.068;6.968;2024-03-07T07:23:12;34.90;;;23.05;;
3443;SDS011;1736;52.068;6.968;2024-03-07T07:25:39;33.07;;;22.17;;
3443;SDS011;1736;52.068;6.968;2024-03-07T07:28:06;33.58;;;22.80;;
3443;SDS011;1736;52.068;6.968;2024-03-07T07:30:34;31.97;;;23.43;;
3443;SDS011;1736;52.068;6.968;2024-03-07T07:33:01;30.05;;;21.17;;
3443;SDS011;1736;52.068;6.968;2024-03-07T07:35:28;31.52;;;21.85;;
3443;SDS011;1736;52.068;6.968;2024-03-07T07:37:54;33.93;;;22.70;;
3443;SDS011;1736;52.068;6.968;2024-03-07T07:40:22;28.77;;;21.10;;
3443;SDS011;1736;52.068;6.968;2024-03-07T07:42:51;31.58;;;22.05;;
3443;SDS011;1736;52.068;6.968;2024-03-07T07:45:19;31.35;;;20.75;;
3443;SDS011;1736;52.068;6.968;2024-03-07T07:47:49;31.48;;;21.73;;
3443;SDS011;1736;52.068;6.968;2024-03-07T07:50:18;30.93;;;21.00;;
3443;SDS011;1736;52.068;6.968;2024-03-07T07:52:46;29.75;;;20.40;;
3443;SDS011;1736;52.068;6.968;2024-03-07T07:55:15;32.80;;;22.48;;
3443;SDS011;1736;52.068;6.968;2024-03-07T07:57:42;29.42;;;21.27;;
3443;SDS011;1736;52.068;6.968;2024-03-07T08:00:11;33.30;;;22.02;;
3443;SDS011;1736;52.068;6.968;2024-03-07T08:02:46;27.35;;;19.73;;
3443;SDS011;1736;52.068;6.968;2024-03-07T08:05:18;30.00;;;21.70;;
3443;SDS011;1736;52.068;6.968;2024-03-07T08:07:48;27.58;;;20.08;;
3443;SDS011;1736;52.068;6.968;2024-03-07T08:10:16;29.58;;;20.20;;
3443;SDS011;1736;52.068;6.968;2024-03-07T08:12:43;28.50;;;19.95;;
3443;SDS011;1736;52.068;6.968;2024-03-07T08:15:10;27.75;;;20.13;;
3443;SDS011;1736;52.068;6.968;2024-03-07T08:17:39;27.67;;;18.80;;
3443;SDS011;1736;52.068;6.968;2024-03-07T08:20:10;29.88;;;19.35;;
3443;SDS011;1736;52.068;6.968;2024-03-07T08:22:37;26.70;;;19.20;;
3443;SDS011;1736;52.068;6.968;2024-03-07T08:25:05;26.08;;;18.50;;
3443;SDS011;1736;52.068;6.968;2024-03-07T08:27:34;25.00;;;17.65;;
3443;SDS011;1736;52.068;6.968;2024-03-07T08:30:01;26.80;;;18.45;;
3443;SDS011;1736;52.068;6.968;2024-03-07T08:32:27;28.10;;;18.08;;
3443;SDS011;1736;52.068;6.968;2024-03-07T08:34:54;26.40;;;18.23;;
3443;SDS011;1736;52.068;6.968;2024-03-07T08:37:22;24.63;;;17.90;;
3443;SDS011;1736;52.068;6.968;2024-03-07T08:39:49;25.42;;;18.30;;
3443;SDS011;1736;52.068;6.968;2024-03-07T08:42:17;24.50;;;17.20;;
3443;SDS011;1736;52.068;6.968;2024-03-07T08:44:44;27.33;;;19.02;;
3443;SDS011;1736;52.068;6.968;2024-03-07T08:47:11;27.25;;;19.48;;
3443;SDS011;1736;52.068;6.968;2024-03-07T08:49:38;29.38;;;18.77;;
3443;SDS011;1736;52.068;6.968;2024-03-07T08:52:05;25.60;;;17.52;;
3443;SDS011;1736;52.068;6.968;2024-03-07T08:54:34;27.57;;;18.83;;
3443;SDS011;1736;52.068;6.968;2024-03-07T08:57:01;25.30;;;17.53;;
3443;SDS011;1736;52.068;6.968;2024-03-07T08:59:28;25.75;;;17.80;;
3443;SDS011;1736;52.068;6.968;2024-03-07T09:01:54;26.17;;;18.40;;
3443;SDS011;1736;52.068;6.968;2024-03-07T09:04:21;25.25;;;17.33;;
3443;SDS011;1736;52.068;6.968;2024-03-07T09:06:48;25.60;;;17.67;;
3443;SDS011;1736;52.068;6.968;2024-03-07T09:09:14;23.77;;;16.63;;
3443;SDS011;1736;52.068;6.968;2024-03-07T09:11:46;22.48;;;16.27;;
3443;SDS011;1736;52.068;6.968;2024-03-07T09:14:12;25.00;;;15.35;;
3443;SDS011;1736;52.068;6.968;2024-03-07T09:16:39;22.63;;;16.05;;
3443;SDS011;1736;52.068;6.968;2024-03-07T09:19:06;24.02;;;15.40;;
3443;SDS011;1736;52.068;6.968;2024-03-07T09:21:34;22.67;;;15.30;;
3443;SDS011;1736;52.068;6.968;2024-03-07T09:24:01;22.75;;;15.88;;
3443;SDS011;1736;52.068;6.968;2024-03-07T09:26:28;23.80;;;15.75;;
3443;SDS011;1736;52.068;6.968;2024-03-07T09:28:56;22.88;;;15.57;;
3443;SDS011;1736;52.068;6.968;2024-03-07T09:31:31;21.17;;;15.27;;
3443;SDS011;1736;52.068;6.968;2024-03-07T09:33:57;22.70;;;15.32;;
3443;SDS011;1736;52.068;6.968;2024-03-07T09:36:24;24.15;;;16.40;;
3443;SDS011;1736;52.068;6.968;2024-03-07T09:38:51;24.27;;;16.48;;
3443;SDS011;1736;52.068;6.968;2024-03-07T09:41:18;22.42;;;15.80;;
3443;SDS011;1736;52.068;6.968;2024-03-07T09:43:45;22.05;;;15.73;;
3443;SDS011;1736;52.068;6.968;2024-03-07T09:46:15;23.25;;;16.60;;
3443;SDS011;1736;52.068;6.968;2024-03-07T09:48:42;24.38;;;16.23;;
3443;SDS011;1736;52.068;6.968;2024-03-07T09:51:09;20.85;;;14.82;;
3443;SDS011;1736;52.068;6.968;2024-03-07T09:53:38;23.90;;;17.05;;
3443;SDS011;1736;52.068;6.968;2024-03-07T09:56:06;23.70;;;16.10;;
3443;SDS011;1736;52.068;6.968;2024-03-07T09:58:33;20.65;;;15.52;;
3443;SDS011;1736;52.068;6.968;2024-03-07T10:01:01;24.03;;;16.83;;
3443;SDS011;1736;52.068;6.968;2024-03-07T10:03:30;25.60;;;17.30;;
3443;SDS011;1736;52.068;6.968;2024-03-07T10:06:00;23.35;;;17.35;;
3443;SDS011;1736;52.068;6.968;2024-03-07T10:08:28;22.33;;;16.38;;
3443;SDS011;1736;52.068;6.968;2024-03-07T10:10:56;23.30;;;16.67;;
3443;SDS011;1736;52.068;6.968;2024-03-07T10:13:23;23.55;;;16.88;;
3443;SDS011;1736;52.068;6.968;2024-03-07T10:15:51;23.77;;;16.15;;
3443;SDS011;1736;52.068;6.968;2024-03-07T10:18:18;25.05;;;16.90;;
3443;SDS011;1736;52.068;6.968;2024-03-07T10:20:48;23.20;;;17.30;;
3443;SDS011;1736;52.068;6.968;2024-03-07T10:23:18;27.77;;;18.50;;
3443;SDS011;1736;52.068;6.968;2024-03-07T10:25:46;25.67;;;18.30;;
3443;SDS011;1736;52.068;6.968;2024-03-07T10:28:13;27.05;;;19.42;;
3443;SDS011;1736;52.068;6.968;2024-03-07T10:30:42;25.67;;;18.60;;
3443;SDS011;1736;52.068;6.968;2024-03-07T10:33:12;28.05;;;18.52;;
3443;SDS011;1736;52.068;6.968;2024-03-07T10:35:40;25.20;;;18.90;;
3443;SDS011;1736;52.068;6.968;2024-03-07T10:38:08;26.77;;;19.05;;
3443;SDS011;1736;52.068;6.968;2024-03-07T10:40:36;30.30;;;20.20;;
3443;SDS011;1736;52.068;6.968;2024-03-07T10:43:07;29.00;;;20.33;;
3443;SDS011;1736;52.068;6.968;2024-03-07T10:45:37;32.72;;;21.73;;
3443;SDS011;1736;52.068;6.968;2024-03-07T10:48:11;30.10;;;21.27;;
3443;SDS011;1736;52.068;6.968;2024-03-07T10:50:41;32.22;;;22.77;;
3443;SDS011;1736;52.068;6.968;2024-03-07T10:53:19;31.50;;;21.60;;
3443;SDS011;1736;52.068;6.968;2024-03-07T10:55:53;30.45;;;21.17;;
3443;SDS011;1736;52.068;6.968;2024-03-07T10:58:37;28.73;;;20.50;;
3443;SDS011;1736;52.068;6.968;2024-03-07T11:01:13;30.33;;;19.65;;
3443;SDS011;1736;52.068;6.968;2024-03-07T11:03:41;31.00;;;19.58;;
3443;SDS011;1736;52.068;6.968;2024-03-07T11:06:08;29.67;;;18.45;;
3443;SDS011;1736;52.068;6.968;2024-03-07T11:08:37;28.30;;;19.17;;
3443;SDS011;1736;52.068;6.968;2024-03-07T11:11:05;27.88;;;19.30;;
3443;SDS011;1736;52.068;6.968;2024-03-07T11:13:32;26.50;;;18.13;;
3443;SDS011;1736;52.068;6.968;2024-03-07T11:16:00;26.70;;;18.45;;
3443;SDS011;1736;52.068;6.968;2024-03-07T11:18:28;26.95;;;18.13;;
3443;SDS011;1736;52.068;6.968;2024-03-07T11:20:55;28.07;;;19.23;;
3443;SDS011;1736;52.068;6.968;2024-03-07T11:23:26;28.17;;;18.60;;
3443;SDS011;1736;52.068;6.968;2024-03-07T11:25:56;26.00;;;18.30;;
3443;SDS011;1736;52.068;6.968;2024-03-07T11:28:30;24.05;;;17.25;;
3443;SDS011;1736;52.068;6.968;2024-03-07T11:31:12;25.17;;;16.73;;
3443;SDS011;1736;52.068;6.968;2024-03-07T11:33:39;24.50;;;15.57;;
3443;SDS011;1736;52.068;6.968;2024-03-07T11:36:07;26.40;;;16.90;;
3443;SDS011;1736;52.068;6.968;2024-03-07T11:38:34;25.55;;;16.30;;
3443;SDS011;1736;52.068;6.968;2024-03-07T11:41:04;27.20;;;17.17;;
3443;SDS011;1736;52.068;6.968;2024-03-07T11:43:33;24.58;;;16.20;;
3443;SDS011;1736;52.068;6.968;2024-03-07T11:46:00;26.38;;;16.40;;
3443;SDS011;1736;52.068;6.968;2024-03-07T11:48:27;24.40;;;15.93;;
3443;SDS011;1736;52.068;6.968;2024-03-07T11:50:56;22.55;;;15.93;;
3443;SDS011;1736;52.068;6.968;2024-03-07T11:53:22;25.67;;;15.85;;
3443;SDS011;1736;52.068;6.968;2024-03-07T11:55:49;24.17;;;15.88;;
3443;SDS011;1736;52.068;6.968;2024-03-07T11:58:17;23.23;;;15.73;;
3443;SDS011;1736;52.068;6.968;2024-03-07T12:00:46;22.85;;;14.88;;
3443;SDS011;1736;52.068;6.968;2024-03-07T12:03:14;22.40;;;15.75;;
3443;SDS011;1736;52.068;6.968;2024-03-07T12:05:43;26.38;;;16.23;;
3443;SDS011;1736;52.068;6.968;2024-03-07T12:08:11;23.02;;;14.82;;
3443;SDS011;1736;52.068;6.968;2024-03-07T12:10:39;21.95;;;15.20;;
3443;SDS011;1736;52.068;6.968;2024-03-07T12:13:08;23.00;;;15.38;;
3443;SDS011;1736;52.068;6.968;2024-03-07T12:15:37;25.38;;;15.60;;
3443;SDS011;1736;52.068;6.968;2024-03-07T12:18:06;21.65;;;15.25;;
3443;SDS011;1736;52.068;6.968;2024-03-07T12:20:37;21.77;;;14.60;;
3443;SDS011;1736;52.068;6.968;2024-03-07T12:23:07;21.73;;;15.00;;
3443;SDS011;1736;52.068;6.968;2024-03-07T12:25:34;23.03;;;15.20;;
3443;SDS011;1736;52.068;6.968;2024-03-07T12:28:02;24.92;;;14.95;;
3443;SDS011;1736;52.068;6.968;2024-03-07T12:30:34;22.42;;;15.25;;
3443;SDS011;1736;52.068;6.968;2024-03-07T12:33:04;23.08;;;15.07;;
3443;SDS011;1736;52.068;6.968;2024-03-07T12:35:32;23.98;;;15.80;;
3443;SDS011;1736;52.068;6.968;2024-03-07T12:37:59;22.90;;;14.90;;
3443;SDS011;1736;52.068;6.968;2024-03-07T12:40:28;23.73;;;15.60;;
3443;SDS011;1736;52.068;6.968;2024-03-07T12:42:59;24.75;;;15.80;;
3443;SDS011;1736;52.068;6.968;2024-03-07T12:45:27;25.35;;;15.73;;
3443;SDS011;1736;52.068;6.968;2024-03-07T12:47:56;24.92;;;16.42;;
3443;SDS011;1736;52.068;6.968;2024-03-07T12:50:30;25.42;;;15.82;;
3443;SDS011;1736;52.068;6.968;2024-03-07T12:53:00;26.08;;;16.25;;
3443;SDS011;1736;52.068;6.968;2024-03-07T12:55:30;25.05;;;15.10;;
3443;SDS011;1736;52.068;6.968;2024-03-07T12:57:57;25.63;;;16.73;;
3443;SDS011;1736;52.068;6.968;2024-03-07T13:00:23;26.20;;;16.05;;
3443;SDS011;1736;52.068;6.968;2024-03-07T13:02:50;25.48;;;16.35;;
3443;SDS011;1736;52.068;6.968;2024-03-07T13:05:17;24.48;;;15.70;;
3443;SDS011;1736;52.068;6.968;2024-03-07T13:07:48;25.00;;;16.20;;
3443;SDS011;1736;52.068;6.968;2024-03-07T13:10:15;26.27;;;16.87;;
3443;SDS011;1736;52.068;6.968;2024-03-07T13:12:43;26.30;;;16.60;;
3443;SDS011;1736;52.068;6.968;2024-03-07T13:15:11;26.65;;;16.33;;
3443;SDS011;1736;52.068;6.968;2024-03-07T13:17:38;22.15;;;15.15;;
3443;SDS011;1736;52.068;6.968;2024-03-07T13:20:05;27.48;;;16.60;;
3443;SDS011;1736;52.068;6.968;2024-03-07T13:22:37;26.87;;;16.47;;
3443;SDS011;1736;52.068;6.968;2024-03-07T13:25:06;25.15;;;15.55;;
3443;SDS011;1736;52.068;6.968;2024-03-07T13:27:39;25.60;;;16.02;;
3443;SDS011;1736;52.068;6.968;2024-03-07T13:30:09;24.77;;;15.30;;
3443;SDS011;1736;52.068;6.968;2024-03-07T13:32:49;25.67;;;16.10;;
3443;SDS011;1736;52.068;6.968;2024-03-07T13:35:18;25.73;;;15.80;;
3443;SDS011;1736;52.068;6.968;2024-03-07T13:37:45;24.67;;;16.13;;
3443;SDS011;1736;52.068;6.968;2024-03-07T13:40:14;21.60;;;14.35;;
3443;SDS011;1736;52.068;6.968;2024-03-07T13:42:54;24.20;;;15.40;;
3443;SDS011;1736;52.068;6.968;2024-03-07T13:45:22;23.17;;;15.13;;
3443;SDS011;1736;52.068;6.968;2024-03-07T13:47:51;22.30;;;14.27;;
3443;SDS011;1736;52.068;6.968;2024-03-07T13:50:19;22.95;;;14.35;;
3443;SDS011;1736;52.068;6.968;2024-03-07T13:52:47;24.00;;;14.35;;
3443;SDS011;1736;52.068;6.968;2024-03-07T13:55:39;23.10;;;14.32;;
3443;SDS011;1736;52.068;6.968;2024-03-07T13:58:18;23.50;;;15.18;;
3443;SDS011;1736;52.068;6.968;2024-03-07T14:01:02;22.48;;;15.30;;
3443;SDS011;1736;52.068;6.968;2024-03-07T14:03:55;22.10;;;14.45;;
3443;SDS011;1736;52.068;6.968;2024-03-07T14:06:42;21.73;;;14.52;;
3443;SDS011;1736;52.068;6.968;2024-03-07T14:09:24;25.13;;;14.57;;
3443;SDS011;1736;52.068;6.968;2024-03-07T14:21:45;22.38;;;15.20;;
3443;SDS011;1736;52.068;6.968;2024-03-07T14:24:45;26.65;;;16.60;;
3443;SDS011;1736;52.068;6.968;2024-03-07T14:27:32;26.60;;;15.40;;
3443;SDS011;1736;52.068;6.968;2024-03-07T14:30:11;26.33;;;15.65;;
3443;SDS011;1736;52.068;6.968;2024-03-07T14:32:48;25.47;;;16.00;;
3443;SDS011;1736;52.068;6.968;2024-03-07T14:35:17;25.35;;;15.80;;
3443;SDS011;1736;52.068;6.968;2024-03-07T14:37:49;22.67;;;15.23;;
3443;SDS011;1736;52.068;6.968;2024-03-07T14:40:21;23.73;;;15.60;;
3443;SDS011;1736;52.068;6.968;2024-03-07T14:42:50;25.83;;;16.30;;
3443;SDS011;1736;52.068;6.968;2024-03-07T14:45:25;27.27;;;16.15;;
3443;SDS011;1736;52.068;6.968;2024-03-07T14:47:56;28.15;;;15.98;;
3443;SDS011;1736;52.068;6.968;2024-03-07T14:50:23;22.38;;;14.30;;
3443;SDS011;1736;52.068;6.968;2024-03-07T14:52:53;23.58;;;15.23;;
3443;SDS011;1736;52.068;6.968;2024-03-07T14:55:20;22.23;;;14.50;;
3443;SDS011;1736;52.068;6.968;2024-03-07T14:57:48;24.35;;;14.80;;
3443;SDS011;1736;52.068;6.968;2024-03-07T15:00:15;23.42;;;14.45;;
3443;SDS011;1736;52.068;6.968;2024-03-07T15:02:47;23.80;;;14.10;;
3443;SDS011;1736;52.068;6.968;2024-03-07T15:05:15;24.23;;;14.40;;